createdAt,value
2018-10-07T00:02:24.434Z,100982.28
2018-10-07T00:04:52.247Z,100993.66
2018-10-07T00:07:19.730Z,100994.22
2018-10-07T00:09:47.702Z,100987.23
2018-10-07T00:12:15.383Z,100987.27
2018-10-07T00:14:43.009Z,100996.09
2018-10-07T00:17:10.506Z,100994.38
2018-10-07T00:19:38.323Z,100995.77
2018-10-07T00:22:05.886Z,100994.02
2018-10-07T00:24:33.380Z,100998.47
2018-10-07T00:27:01.082Z,100998.95
2018-10-07T00:29:28.622Z,101000.75
2018-10-07T00:32:02.118Z,101002.58
2018-10-07T00:34:29.763Z,101002.66
2018-10-07T00:36:57.333Z,101006.64
2018-10-07T00:39:24.851Z,101021.56
2018-10-07T00:41:52.694Z,101014.58
2018-10-07T00:44:20.223Z,101019.00
2018-10-07T00:46:47.807Z,101021.23
2018-10-07T00:49:16.152Z,101025.70
2018-10-07T00:51:43.656Z,101027.92
2018-10-07T00:54:11.138Z,101029.28
2018-10-07T00:56:38.953Z,101031.54
2018-10-07T00:59:06.434Z,101038.16
2018-10-07T01:01:34.018Z,101037.83
2018-10-07T01:04:01.695Z,101042.66
2018-10-07T01:06:29.252Z,101045.36
2018-10-07T01:08:56.727Z,101044.14
2018-10-07T01:11:24.583Z,101048.13
2018-10-07T01:13:52.051Z,101043.84
2018-10-07T01:16:19.552Z,101038.17
2018-10-07T01:18:47.467Z,101036.92
2018-10-07T01:21:15.620Z,101037.46
2018-10-07T01:23:43.137Z,101039.69
2018-10-07T01:26:10.881Z,101045.89
2018-10-07T01:28:38.431Z,101045.08
2018-10-07T01:31:05.976Z,101047.34
2018-10-07T01:33:33.793Z,101042.58
2018-10-07T01:36:01.325Z,101049.26
2018-10-07T01:38:28.734Z,101047.60
2018-10-07T01:40:56.492Z,101045.47
2018-10-07T01:43:24.092Z,101045.97
2018-10-07T01:45:51.614Z,101049.98
2018-10-07T01:48:19.325Z,101051.36
2018-10-07T01:50:46.772Z,101056.24
2018-10-07T01:53:14.297Z,101057.21
2018-10-07T01:55:42.135Z,101057.68
2018-10-07T01:58:09.627Z,101064.28
2018-10-07T02:00:37.136Z,101056.02
2018-10-07T02:03:05.236Z,101055.17
2018-10-07T02:05:32.728Z,101060.05
2018-10-07T02:08:00.182Z,101056.13
2018-10-07T02:10:27.929Z,101060.11
2018-10-07T02:12:55.428Z,101060.20
2018-10-07T02:15:22.912Z,101065.95
2018-10-07T02:17:50.851Z,101070.36
2018-10-07T02:20:18.449Z,101063.81
2018-10-07T02:22:45.896Z,101068.66
2018-10-07T02:25:13.608Z,101065.19
2018-10-07T02:27:41.095Z,101063.87
2018-10-07T02:30:08.589Z,101069.16
2018-10-07T02:32:36.291Z,101026.30
2018-10-07T02:35:04.076Z,101063.05
2018-10-07T02:37:31.641Z,101069.62
2018-10-07T02:39:59.449Z,101072.28
2018-10-07T02:42:26.915Z,101076.72
2018-10-07T02:44:54.499Z,101076.31
2018-10-07T02:47:22.185Z,101080.72
2018-10-07T02:49:49.665Z,101080.30
2018-10-07T02:52:22.854Z,101083.41
2018-10-07T02:54:50.495Z,101080.78
2018-10-07T02:57:18.114Z,101075.55
2018-10-07T02:59:45.699Z,101078.17
2018-10-07T03:02:13.654Z,101085.18
2018-10-07T03:04:41.208Z,101091.34
2018-10-07T03:07:08.791Z,101094.87
2018-10-07T03:09:36.721Z,101090.56
2018-10-07T03:12:04.220Z,101095.00
2018-10-07T03:14:31.723Z,101096.37
2018-10-07T03:16:59.440Z,101102.05
2018-10-07T03:19:26.913Z,101100.31
2018-10-07T03:21:55.125Z,101103.84
2018-10-07T03:24:23.045Z,101114.34
2018-10-07T03:26:50.548Z,101109.53
2018-10-07T03:29:18.142Z,101114.78
2018-10-07T03:31:45.917Z,101111.30
2018-10-07T03:34:13.449Z,101113.93
2018-10-07T03:36:41.211Z,101116.15
2018-10-07T03:39:09.177Z,101110.51
2018-10-07T03:41:36.717Z,101120.14
2018-10-07T03:44:04.173Z,101115.34
2018-10-07T03:46:31.797Z,101116.66
2018-10-07T03:48:59.431Z,101125.01
2018-10-07T03:51:26.918Z,101070.31
2018-10-07T03:53:54.678Z,101125.06
2018-10-07T03:56:22.149Z,101125.95
2018-10-07T03:58:49.607Z,101125.54
2018-10-07T04:01:17.468Z,101125.97
2018-10-07T04:03:44.996Z,101130.40
2018-10-07T04:06:12.625Z,101127.38
2018-10-07T04:08:40.314Z,101128.72
2018-10-07T04:11:07.849Z,101127.00
2018-10-07T04:13:35.280Z,101124.83
2018-10-07T04:16:02.945Z,101123.08
2018-10-07T04:18:30.388Z,101124.41
2018-10-07T04:20:57.964Z,101132.31
2018-10-07T04:23:25.596Z,101130.12
2018-10-07T04:25:53.135Z,101131.01
2018-10-07T04:28:20.640Z,101126.64
2018-10-07T04:30:48.434Z,101135.41
2018-10-07T04:33:15.887Z,101132.37
2018-10-07T04:35:43.416Z,101143.73
2018-10-07T04:38:11.566Z,101143.73
2018-10-07T04:40:39.142Z,101137.20
2018-10-07T04:43:06.590Z,101129.39
2018-10-07T04:45:34.361Z,101137.73
2018-10-07T04:48:01.831Z,101127.30
2018-10-07T04:50:29.343Z,101132.08
2018-10-07T04:52:57.324Z,101134.27
2018-10-07T04:55:24.799Z,101135.58
2018-10-07T04:57:52.270Z,101086.59
2018-10-07T05:00:20.121Z,101134.70
2018-10-07T05:02:47.544Z,101129.94
2018-10-07T05:05:15.067Z,101137.35
2018-10-07T05:07:43.335Z,101134.31
2018-10-07T05:10:21.969Z,101124.72
2018-10-07T05:12:49.718Z,101129.98
2018-10-07T05:15:17.420Z,101133.45
2018-10-07T05:17:45.017Z,101136.11
2018-10-07T05:20:12.833Z,101138.75
2018-10-07T05:22:40.330Z,101144.46
2018-10-07T05:25:07.817Z,101142.73
2018-10-07T05:27:35.788Z,101092.41
2018-10-07T05:30:03.429Z,101143.17
2018-10-07T05:32:30.974Z,101150.63
2018-10-07T05:34:58.642Z,101151.52
2018-10-07T05:37:26.126Z,101157.61
2018-10-07T05:39:53.878Z,101162.01
2018-10-07T05:42:21.797Z,101166.81
2018-10-07T05:44:49.373Z,101165.98
2018-10-07T05:47:16.851Z,101172.06
2018-10-07T05:49:44.601Z,101167.28
2018-10-07T05:52:12.053Z,101169.03
2018-10-07T05:54:39.602Z,101174.69
2018-10-07T05:57:07.438Z,101172.94
2018-10-07T05:59:35.062Z,101178.17
2018-10-07T06:02:05.133Z,101176.41
2018-10-07T06:04:40.600Z,101182.95
2018-10-07T06:07:08.406Z,101178.12
2018-10-07T06:09:36.880Z,101187.73
2018-10-07T06:12:04.625Z,101197.34
2018-10-07T06:14:43.461Z,101192.52
2018-10-07T06:17:11.269Z,101204.28
2018-10-07T06:19:38.767Z,101207.33
2018-10-07T06:22:06.482Z,101211.23
2018-10-07T06:24:34.687Z,101210.75
2018-10-07T06:27:02.411Z,101212.02
2018-10-07T06:29:29.920Z,101219.85
2018-10-07T06:31:57.792Z,101222.00
2018-10-07T06:34:25.318Z,101224.15
2018-10-07T06:36:53.281Z,101221.03
2018-10-07T06:39:21.252Z,101217.94
2018-10-07T06:41:49.536Z,101217.45
2018-10-07T06:44:17.086Z,101222.23
2018-10-07T06:46:44.817Z,101230.48
2018-10-07T06:49:12.314Z,101228.69
2018-10-07T06:51:39.848Z,101229.05
2018-10-07T06:54:07.626Z,101232.95
2018-10-07T06:56:35.386Z,101237.72
2018-10-07T06:59:02.966Z,101232.45
2018-10-07T07:01:30.630Z,101232.81
2018-10-07T07:03:58.124Z,101235.37
2018-10-07T07:06:25.664Z,101232.67
2018-10-07T07:08:53.627Z,101228.66
2018-10-07T07:11:21.153Z,101233.84
2018-10-07T07:13:48.586Z,101233.33
2018-10-07T07:16:16.358Z,101230.63
2018-10-07T07:18:43.836Z,101238.41
2018-10-07T07:21:11.898Z,101233.08
2018-10-07T07:23:39.647Z,101237.83
2018-10-07T07:26:07.182Z,101230.27
2018-10-07T07:28:34.698Z,101226.23
2018-10-07T07:31:02.454Z,101233.61
2018-10-07T07:33:29.982Z,101233.50
2018-10-07T07:35:57.440Z,101232.55
2018-10-07T07:38:25.568Z,101233.78
2018-10-07T07:40:52.992Z,101232.38
2018-10-07T07:43:20.757Z,101229.22
2018-10-07T07:45:48.562Z,101227.82
2018-10-07T07:48:16.081Z,101230.34
2018-10-07T07:50:43.624Z,101226.30
2018-10-07T07:53:11.529Z,101220.95
2018-10-07T07:55:39.087Z,101232.68
2018-10-07T07:58:06.803Z,101230.80
2018-10-07T08:00:34.827Z,101227.67
2018-10-07T08:03:02.306Z,101235.48
2018-10-07T08:05:29.917Z,101238.86
2018-10-07T08:07:57.509Z,101239.65
2018-10-07T08:10:24.991Z,101242.16
2018-10-07T08:12:52.515Z,101247.77
2018-10-07T08:15:20.099Z,101242.44
2018-10-07T08:17:47.742Z,101246.26
2018-10-07T08:20:15.303Z,101245.25
2018-10-07T08:22:42.881Z,101246.91
2018-10-07T08:25:10.438Z,101247.22
2018-10-07T08:27:38.160Z,101248.88
2018-10-07T08:30:06.759Z,101252.19
2018-10-07T08:32:34.247Z,101253.80
2018-10-07T08:35:01.879Z,101251.87
2018-10-07T08:37:29.450Z,101241.99
2018-10-07T08:39:56.968Z,101249.72
2018-10-07T08:42:24.442Z,101247.34
2018-10-07T08:44:52.280Z,101249.39
2018-10-07T08:47:19.836Z,101251.84
2018-10-07T08:49:47.387Z,101254.37
2018-10-07T08:52:15.009Z,101251.10
2018-10-07T08:54:42.635Z,101244.36
2018-10-07T08:57:10.168Z,101254.20
2018-10-07T08:59:37.711Z,101247.44
2018-10-07T09:02:05.209Z,101256.48
2018-10-07T09:04:32.701Z,101251.84
2018-10-07T09:07:00.407Z,101248.91
2018-10-07T09:09:27.924Z,101243.37
2018-10-07T09:11:55.355Z,101249.20
2018-10-07T09:14:23.073Z,101248.06
2018-10-07T09:16:50.548Z,101252.99
2018-10-07T09:19:18.038Z,101246.92
2018-10-07T09:21:45.660Z,101250.61
2018-10-07T09:24:13.141Z,101248.48
2018-10-07T09:26:40.713Z,101252.52
2018-10-07T09:29:08.395Z,101251.72
2018-10-07T09:31:35.910Z,101246.89
2018-10-07T09:34:03.411Z,101249.53
2018-10-07T09:36:31.202Z,101252.08
2018-10-07T09:38:58.703Z,101249.59
2018-10-07T09:41:26.199Z,101239.63
2018-10-07T09:43:53.879Z,101239.38
2018-10-07T09:46:21.559Z,101248.05
2018-10-07T09:48:49.284Z,101250.15
2018-10-07T09:51:17.004Z,101249.02
2018-10-07T09:53:44.498Z,101248.33
2018-10-07T09:56:11.919Z,101248.98
2018-10-07T09:58:39.529Z,101251.36
2018-10-07T10:01:07.131Z,101250.81
2018-10-07T10:03:34.568Z,101251.69
2018-10-07T10:06:02.269Z,101256.23
2018-10-07T10:08:29.719Z,101255.98
2018-10-07T10:10:57.258Z,101262.50
2018-10-07T10:13:24.942Z,101259.12
2018-10-07T10:15:52.418Z,101248.83
2018-10-07T10:18:25.934Z,101257.55
2018-10-07T10:21:43.178Z,101256.73
2018-10-07T10:24:21.920Z,101254.84
2018-10-07T10:27:02.024Z,101262.64
2018-10-07T10:29:31.506Z,101265.10
2018-10-07T10:32:31.795Z,101261.52
2018-10-07T10:35:04.372Z,101261.59
2018-10-07T10:37:38.464Z,101260.91
2018-10-07T10:40:07.946Z,101272.33
2018-10-07T10:42:43.112Z,101269.38
2018-10-07T10:45:36.682Z,101276.63
2018-10-07T10:48:16.448Z,101272.05
2018-10-07T10:50:53.783Z,101269.17
2018-10-07T10:53:27.972Z,101269.55
2018-10-07T10:56:04.347Z,101274.16
2018-10-07T10:59:06.512Z,101270.55
2018-10-07T11:01:42.986Z,101273.33
2018-10-07T11:04:15.716Z,101270.55
2018-10-07T11:06:44.684Z,101276.16
2018-10-07T11:09:19.068Z,101268.50
2018-10-07T11:12:03.362Z,101265.53
2018-10-07T11:14:34.009Z,101261.83
2018-10-07T11:17:11.307Z,101264.83
2018-10-07T11:19:38.987Z,101268.62
2018-10-07T11:22:11.393Z,101267.48
2018-10-07T11:24:43.094Z,101272.30
2018-10-07T11:27:15.921Z,101276.66
2018-10-07T11:29:48.715Z,101277.59
2018-10-07T11:32:18.432Z,101277.18
2018-10-07T11:34:52.518Z,101282.36
2018-10-07T11:37:24.927Z,101273.09
2018-10-07T11:41:59.326Z,101270.00
2018-10-07T11:44:31.806Z,101270.17
2018-10-07T11:47:07.920Z,101270.17
2018-10-07T11:49:36.757Z,101271.05
2018-10-07T11:53:08.113Z,101250.78
2018-10-07T11:55:34.986Z,101287.61
2018-10-07T11:58:01.846Z,101284.19
2018-10-07T12:00:28.878Z,101283.48
2018-10-07T12:02:55.749Z,101277.80
2018-10-07T12:05:22.632Z,101286.14
2018-10-07T12:07:49.765Z,101249.09
2018-10-07T12:10:16.744Z,101279.58
2018-10-07T12:12:43.561Z,101239.95
2018-10-07T12:15:10.632Z,101272.77
2018-10-07T12:17:37.544Z,101280.52
2018-10-07T12:20:04.397Z,101271.03
2018-10-07T12:22:31.491Z,101274.55
2018-10-07T12:24:58.287Z,101277.72
2018-10-07T12:27:25.156Z,101273.47
2018-10-07T12:29:52.180Z,101280.23
2018-10-07T12:32:19.026Z,101279.95
2018-10-07T12:34:45.861Z,101285.45
2018-10-07T12:37:12.900Z,101291.64
2018-10-07T12:39:39.815Z,101289.38
2018-10-07T12:42:06.666Z,101286.30
2018-10-07T12:44:33.673Z,101283.34
2018-10-07T12:47:00.545Z,101286.89
2018-10-07T12:49:27.423Z,101280.09
2018-10-07T12:51:54.748Z,101280.27
2018-10-07T12:54:21.666Z,101279.88
2018-10-07T12:56:48.675Z,101282.84
2018-10-07T12:59:15.627Z,101280.97
2018-10-07T13:01:42.529Z,101277.72
2018-10-07T13:04:09.407Z,101280.30
2018-10-07T13:06:36.433Z,101279.58
2018-10-07T13:09:04.718Z,101282.88
2018-10-07T13:11:31.589Z,101285.38
2018-10-07T13:13:58.629Z,101284.13
2018-10-07T13:16:25.500Z,101285.55
2018-10-07T13:18:52.334Z,101288.77
2018-10-07T13:21:19.440Z,101290.27
2018-10-07T13:23:46.332Z,101298.16
2018-10-07T13:26:13.270Z,101300.84
2018-10-07T13:28:40.339Z,101304.43
2018-10-07T13:31:07.319Z,101301.55
2018-10-07T13:33:34.307Z,101300.55
2018-10-07T13:36:01.394Z,101308.10
2018-10-07T13:38:28.254Z,101307.02
2018-10-07T13:40:55.165Z,101307.64
2018-10-07T13:43:22.785Z,101307.27
2018-10-07T13:45:50.295Z,101302.47
2018-10-07T13:48:17.759Z,101282.14
2018-10-07T13:50:45.426Z,101304.42
2018-10-07T13:53:13.260Z,101306.55
2018-10-07T13:55:40.690Z,101311.51
2018-10-07T13:58:08.446Z,101313.16
2018-10-07T14:00:35.900Z,101303.58
2018-10-07T14:03:03.336Z,101319.77
2018-10-07T14:05:30.955Z,101319.83
2018-10-07T14:07:58.399Z,101318.58
2018-10-07T14:10:25.893Z,101317.55
2018-10-07T14:12:53.462Z,101324.98
2018-10-07T14:15:20.915Z,101331.01
2018-10-07T14:17:48.415Z,101323.80
2018-10-07T14:22:06.323Z,101324.41
2018-10-07T14:24:33.812Z,101322.50
2018-10-07T14:27:01.230Z,101322.80
2018-10-07T14:29:29.024Z,101320.36
2018-10-07T14:31:56.480Z,101323.70
2018-10-07T14:34:23.976Z,101326.52
2018-10-07T14:36:51.627Z,101326.20
2018-10-07T14:39:19.077Z,101327.76
2018-10-07T14:41:46.564Z,101323.48
2018-10-07T14:44:14.049Z,101330.22
2018-10-07T14:46:41.519Z,101328.16
2018-10-07T14:49:09.009Z,101330.05
2018-10-07T14:51:36.597Z,101323.19
2018-10-07T14:54:04.226Z,101331.89
2018-10-07T14:56:31.703Z,101330.67
2018-10-07T14:58:59.463Z,101338.66
2018-10-07T15:01:26.895Z,101341.39
2018-10-07T15:03:54.385Z,101328.98
2018-10-07T15:06:21.973Z,101337.99
2018-10-07T15:08:49.473Z,101341.61
2018-10-07T15:11:16.954Z,101337.26
2018-10-07T15:13:44.587Z,101337.78
2018-10-07T15:16:12.100Z,101333.48
2018-10-07T15:18:39.616Z,101335.89
2018-10-07T15:21:07.249Z,101343.46
2018-10-07T15:23:34.758Z,101344.87
2018-10-07T15:26:02.262Z,101343.67
2018-10-07T15:28:29.838Z,101348.22
2018-10-07T15:30:57.414Z,101349.63
2018-10-07T15:33:24.873Z,101342.23
2018-10-07T15:35:52.411Z,101339.71
2018-10-07T15:38:19.911Z,101344.72
2018-10-07T15:40:47.366Z,101344.44
2018-10-07T15:43:14.953Z,101345.58
2018-10-07T15:45:42.434Z,101355.69
2018-10-07T15:48:09.876Z,101357.67
2018-10-07T15:50:37.375Z,101354.89
2018-10-07T15:53:04.967Z,101363.53
2018-10-07T15:55:32.660Z,101355.88
2018-10-07T15:58:00.309Z,101360.59
2018-10-07T16:00:27.826Z,101365.72
2018-10-07T16:02:55.323Z,101377.13
2018-10-07T16:05:22.828Z,101373.98
2018-10-07T16:07:50.253Z,101372.45
2018-10-07T16:10:17.766Z,101375.30
2018-10-07T16:12:45.454Z,101378.20
2018-10-07T16:15:12.838Z,101378.39
2018-10-07T16:17:40.281Z,101371.12
2018-10-07T16:20:07.846Z,101377.62
2018-10-07T16:22:35.498Z,101371.73
2018-10-07T16:25:02.987Z,101373.76
2018-10-07T16:27:30.665Z,101375.81
2018-10-07T16:29:58.139Z,101370.31
2018-10-07T16:32:25.575Z,101375.48
2018-10-07T16:34:53.167Z,101383.28
2018-10-07T16:37:20.665Z,101385.77
2018-10-07T16:39:48.145Z,101387.84
2018-10-07T16:42:15.787Z,101394.82
2018-10-07T16:44:43.262Z,101390.67
2018-10-07T16:47:10.715Z,101392.22
2018-10-07T16:49:38.295Z,101399.92
2018-10-07T16:52:05.813Z,101400.14
2018-10-07T16:54:33.331Z,101398.22
2018-10-07T16:57:00.963Z,101402.02
2018-10-07T16:59:28.415Z,101410.19
2018-10-07T17:01:55.865Z,101408.20
2018-10-07T17:04:23.448Z,101414.70
2018-10-07T17:06:50.952Z,101416.73
2018-10-07T17:09:18.441Z,101418.37
2018-10-07T17:11:46.093Z,101414.64
2018-10-07T17:14:13.540Z,101417.95
2018-10-07T17:16:41.052Z,101422.17
2018-10-07T17:19:08.671Z,101418.40
2018-10-07T17:21:36.196Z,101434.44
2018-10-07T17:24:03.707Z,101431.98
2018-10-07T17:26:31.366Z,101428.66
2018-10-07T17:28:58.907Z,101430.62
2018-10-07T17:31:26.344Z,101428.64
2018-10-07T17:33:54.100Z,101438.50
2018-10-07T17:36:21.553Z,101433.39
2018-10-07T17:38:49.053Z,101437.99
2018-10-07T17:41:16.554Z,101439.50
2018-10-07T17:43:44.005Z,101437.95
2018-10-07T17:46:11.594Z,101428.39
2018-10-07T17:48:39.437Z,101434.75
2018-10-07T17:51:06.931Z,101439.30
2018-10-07T17:53:34.499Z,101446.53
2018-10-07T17:56:02.175Z,101438.41
2018-10-07T17:58:29.775Z,101432.89
2018-10-07T18:00:57.228Z,101435.27
2018-10-07T18:03:25.049Z,101436.29
2018-10-07T18:05:52.507Z,101434.17
2018-10-07T18:08:19.973Z,101432.09
2018-10-07T18:10:47.452Z,101432.74
2018-10-07T18:13:14.980Z,101437.31
2018-10-07T18:15:42.502Z,101445.48
2018-10-07T18:18:09.917Z,101441.33
2018-10-07T18:20:37.380Z,101446.81
2018-10-07T18:23:04.912Z,101446.97
2018-10-07T18:25:32.356Z,101443.12
2018-10-07T18:27:59.867Z,101449.44
2018-10-07T18:30:27.348Z,101446.06
2018-10-07T18:33:00.434Z,101448.34
2018-10-07T18:35:27.977Z,101451.05
2018-10-07T18:37:55.445Z,101444.48
2018-10-07T18:40:22.948Z,101450.70
2018-10-07T18:42:50.556Z,101449.92
2018-10-07T18:45:18.121Z,101453.19
2018-10-07T18:47:45.627Z,101449.52
2018-10-07T18:50:13.272Z,101405.58
2018-10-07T18:52:40.750Z,101461.64
2018-10-07T18:55:08.283Z,101452.88
2018-10-07T18:57:35.823Z,101456.42
2018-10-07T19:00:03.736Z,101459.54
2018-10-07T19:02:31.294Z,101464.45
2018-10-07T19:04:58.893Z,101461.44
2018-10-07T19:07:26.446Z,101462.38
2018-10-07T19:09:53.936Z,101461.98
2018-10-07T19:12:21.604Z,101465.56
2018-10-07T19:14:49.103Z,101461.23
2018-10-07T19:17:16.533Z,101467.45
2018-10-07T19:19:44.186Z,101460.98
2018-10-07T19:22:11.668Z,101472.99
2018-10-07T19:24:39.143Z,101459.48
2018-10-07T19:27:06.808Z,101457.36
2018-10-07T19:29:34.324Z,101455.19
2018-10-07T19:32:01.844Z,101452.58
2018-10-07T19:34:29.463Z,101456.12
2018-10-07T19:36:56.948Z,101449.16
2018-10-07T19:39:24.450Z,101444.80
2018-10-07T19:41:52.128Z,101434.30
2018-10-07T19:44:19.554Z,101434.81
2018-10-07T19:46:47.032Z,101430.95
2018-10-07T19:49:14.582Z,101424.42
2018-10-07T19:51:42.083Z,101424.92
2018-10-07T19:54:09.637Z,101417.07
2018-10-07T19:56:37.278Z,101418.89
2018-10-07T19:59:04.753Z,101418.52
2018-10-07T20:01:32.309Z,101411.54
2018-10-07T20:03:59.873Z,101410.75
2018-10-07T20:06:27.366Z,101410.88
2018-10-07T20:08:54.852Z,101415.33
2018-10-07T20:11:22.539Z,101416.27
2018-10-07T20:13:50.033Z,101414.09
2018-10-07T20:16:17.549Z,101424.73
2018-10-07T20:18:45.039Z,101431.43
2018-10-07T20:21:12.509Z,101428.44
2018-10-07T20:23:39.976Z,101427.67
2018-10-07T20:26:07.706Z,101425.94
2018-10-07T20:28:35.246Z,101427.78
2018-10-07T20:31:02.717Z,101424.70
2018-10-07T20:33:30.394Z,101426.05
2018-10-07T20:35:57.830Z,101426.52
2018-10-07T20:38:25.273Z,101425.64
2018-10-07T20:40:53.113Z,101426.08
2018-10-07T20:43:20.439Z,101425.70
2018-10-07T20:45:47.876Z,101431.90
2018-10-07T20:48:15.505Z,101431.05
2018-10-07T20:50:42.969Z,101431.13
2018-10-07T20:53:10.455Z,101420.67
2018-10-07T20:55:38.145Z,101422.04
2018-10-07T20:58:05.714Z,101427.38
2018-10-07T21:00:33.161Z,101433.52
2018-10-07T21:03:00.895Z,101442.35
2018-10-07T21:05:28.347Z,101446.04
2018-10-07T21:07:55.845Z,101446.67
2018-10-07T21:10:23.709Z,101450.23
2018-10-07T21:12:51.138Z,101449.83
2018-10-07T21:15:18.633Z,101447.20
2018-10-07T21:17:46.212Z,101448.92
2018-10-07T21:20:13.722Z,101448.52
2018-10-07T21:22:41.351Z,101450.73
2018-10-07T21:25:08.951Z,101447.24
2018-10-07T21:27:36.512Z,101436.73
2018-10-07T21:30:04.064Z,101431.06
2018-10-07T21:32:31.726Z,101438.08
2018-10-07T21:34:59.214Z,101435.03
2018-10-07T21:37:26.779Z,101432.86
2018-10-07T21:39:54.396Z,101435.12
2018-10-07T21:42:21.879Z,101429.91
2018-10-07T21:44:49.541Z,101429.48
2018-10-07T21:47:16.999Z,101434.36
2018-10-07T21:49:44.502Z,101439.70
2018-10-07T21:52:11.992Z,101436.69
2018-10-07T21:54:39.827Z,101440.29
2018-10-07T21:57:07.296Z,101444.28
2018-10-07T21:59:34.779Z,101441.70
2018-10-07T22:02:02.429Z,101447.03
2018-10-07T22:04:31.016Z,101451.00
2018-10-07T22:06:58.614Z,101440.05
2018-10-07T22:09:26.273Z,101441.83
2018-10-07T22:11:53.814Z,101447.11
2018-10-07T22:14:21.254Z,101456.73
2018-10-07T22:16:49.027Z,101453.70
2018-10-07T22:19:16.548Z,101447.63
2018-10-07T22:21:44.027Z,101450.29
2018-10-07T22:24:11.784Z,101432.78
2018-10-07T22:26:39.207Z,101436.27
2018-10-07T22:29:06.731Z,101437.16
2018-10-07T22:31:34.486Z,101431.49
2018-10-07T22:34:02.027Z,101436.75
2018-10-07T22:36:29.502Z,101436.30
2018-10-07T22:38:57.154Z,101428.42
2018-10-07T22:41:24.639Z,101431.52
2018-10-07T22:43:52.061Z,101426.69
2018-10-07T22:46:19.769Z,101424.48
2018-10-07T22:48:47.209Z,101418.84
2018-10-07T22:51:14.643Z,101418.86
2018-10-07T22:53:42.411Z,101415.86
2018-10-07T22:56:09.897Z,101429.41
2018-10-07T22:58:37.583Z,101420.64
2018-10-07T23:01:05.365Z,101421.15
2018-10-07T23:03:32.868Z,101425.55
2018-10-07T23:06:00.582Z,101368.61
2018-10-07T23:08:28.166Z,101418.12
2018-10-07T23:10:55.623Z,101415.06
2018-10-07T23:13:23.096Z,101421.19
2018-10-07T23:15:50.799Z,101426.05
2018-10-07T23:18:18.222Z,101425.67
2018-10-07T23:20:45.720Z,101422.20
2018-10-07T23:23:13.339Z,101420.00
2018-10-07T23:25:40.885Z,101418.26
2018-10-07T23:28:08.345Z,101409.06
2018-10-07T23:30:36.060Z,101409.48
2018-10-07T23:33:03.557Z,101405.10
2018-10-07T23:35:31.049Z,101412.10
2018-10-07T23:37:58.685Z,101421.77
2018-10-07T23:40:26.614Z,101402.55
2018-10-07T23:42:54.072Z,101401.32
2018-10-07T23:45:21.738Z,101403.98
2018-10-07T23:47:49.200Z,101340.05
2018-10-07T23:50:16.665Z,101405.30
2018-10-07T23:52:44.223Z,101393.02
2018-10-07T23:55:11.853Z,101391.25
2018-10-07T23:57:39.354Z,101395.64
